KGFL/GFL METAR and TAF weather

Enter ICAO airport designator
Station Type Date Time Source
KGFL METAR 2019/12/07 14:53 UTC NOAA

KGFL 071453Z AUTO 00000KT 10SM CLR A3033 RMK AO2 SLPNO 51017


Station Type Date Time Source
KGFL Decoded METAR 2019/12/07 14:53 UTC NOAA

FLOYD BENNETT MEMORIAL AIRPORT , NY, United States (KGFL) 43-20N 073-37W 103M
Dec 07, 2019 - 09:53 AM EST / 2019.12.07 1453 UTC
Wind: Calm:0
Visibility: 10 mile(s):0
Sky conditions: clear
Pressure (altimeter): 30.33 in. Hg (1027 hPa)
Pressure tendency: 0.05 inches (1.7 hPa) higher than three hours ago
ob: KGFL 071453Z AUTO 00000KT 10SM CLR A3033 RMK AO2 SLPNO 51017
cycle: 15

Station Type Date Time Source
KGFL TAF 2019/12/07 12:33 UTC NOAA

TAF KGFL 071131Z 0712/0812 00000KT P6SM OVC080
FM071600 VRB03KT P6SM BKN035
FM071900 VRB03KT P6SM SCT035
FM072200 VRB03KT P6SM SCT250

Example: see airport list